createdAt,value
2023-04-27T00:01:44.823Z,1.87
2023-04-27T00:04:14.429Z,2.22
2023-04-27T00:06:42.864Z,2.08
2023-04-27T00:09:10.273Z,2.28
2023-04-27T00:11:38.025Z,2.47
2023-04-27T00:14:05.761Z,2.45
2023-04-27T00:16:33.244Z,2.00
2023-04-27T00:19:01.009Z,2.10
2023-04-27T00:21:28.528Z,2.10
2023-04-27T00:23:56.513Z,2.20
2023-04-27T00:26:24.255Z,2.37
2023-04-27T00:28:51.884Z,2.17
2023-04-27T00:31:19.285Z,2.20
2023-04-27T00:33:46.976Z,2.37
2023-04-27T00:36:16.696Z,2.03
2023-04-27T00:38:44.148Z,2.05
2023-04-27T00:41:11.877Z,2.00
2023-04-27T00:43:44.331Z,2.10
2023-04-27T00:46:13.314Z,2.55
2023-04-27T00:48:41.893Z,2.87
2023-04-27T00:51:10.601Z,2.47
2023-04-27T00:53:38.798Z,2.40
2023-04-27T00:56:07.118Z,2.67
2023-04-27T00:58:34.773Z,2.35
2023-04-27T01:01:03.776Z,2.47
2023-04-27T01:03:31.588Z,2.40
2023-04-27T01:06:01.800Z,2.72
2023-04-27T01:08:29.877Z,2.75
2023-04-27T01:10:57.520Z,2.83
2023-04-27T01:13:25.013Z,2.92
2023-04-27T01:15:52.730Z,2.80
2023-04-27T01:18:20.102Z,3.08
2023-04-27T01:20:47.913Z,2.97
2023-04-27T01:23:17.346Z,2.50
2023-04-27T01:25:45.064Z,2.10
2023-04-27T01:28:12.792Z,2.17
2023-04-27T01:30:40.563Z,2.50
2023-04-27T01:33:08.003Z,2.22
2023-04-27T01:35:35.515Z,2.30
2023-04-27T01:38:03.290Z,2.30
2023-04-27T01:40:30.828Z,2.25
2023-04-27T01:42:58.277Z,2.10
2023-04-27T01:45:26.205Z,2.22
2023-04-27T01:47:53.854Z,2.10
2023-04-27T01:50:21.581Z,2.40
2023-04-27T01:52:49.367Z,2.12
2023-04-27T01:55:16.886Z,2.20
2023-04-27T01:57:44.362Z,2.00
2023-04-27T02:00:12.804Z,2.50
2023-04-27T02:02:48.054Z,2.22
2023-04-27T02:05:15.908Z,2.25
2023-04-27T02:07:43.314Z,2.40
2023-04-27T02:10:10.992Z,2.60
2023-04-27T02:12:38.624Z,2.12
2023-04-27T02:15:08.691Z,2.70
2023-04-27T02:17:36.490Z,2.47
2023-04-27T02:20:06.767Z,2.37
2023-04-27T02:22:34.237Z,2.12
2023-04-27T02:25:03.027Z,2.10
2023-04-27T02:27:30.535Z,2.40
2023-04-27T02:29:58.574Z,2.03
2023-04-27T02:32:27.192Z,2.70
2023-04-27T02:34:55.384Z,2.10
2023-04-27T02:37:22.914Z,2.22
2023-04-27T02:39:50.635Z,2.20
2023-04-27T02:42:18.495Z,2.40
2023-04-27T02:44:46.193Z,2.17
2023-04-27T02:47:14.026Z,2.17
2023-04-27T02:49:43.604Z,2.55
2023-04-27T02:52:11.016Z,2.05
2023-04-27T02:54:39.345Z,2.62
2023-04-27T02:57:07.150Z,3.30
2023-04-27T02:59:34.591Z,2.78
2023-04-27T03:02:02.022Z,2.22
2023-04-27T03:04:30.028Z,2.55
2023-04-27T03:06:57.444Z,2.40
2023-04-27T03:09:25.146Z,2.62
2023-04-27T03:11:52.879Z,2.12
2023-04-27T03:14:21.263Z,2.47
2023-04-27T03:16:48.959Z,2.45
2023-04-27T03:19:16.667Z,3.05
2023-04-27T03:21:44.409Z,2.78
2023-04-27T03:24:11.766Z,2.80
2023-04-27T03:26:39.457Z,3.25
2023-04-27T03:29:06.887Z,2.70
2023-04-27T03:31:34.532Z,3.20
2023-04-27T03:34:02.303Z,2.75
2023-04-27T03:36:30.047Z,3.20
2023-04-27T03:38:57.540Z,3.10
2023-04-27T03:41:25.681Z,2.80
2023-04-27T03:43:53.540Z,2.95
2023-04-27T03:46:21.295Z,2.83
2023-04-27T03:48:49.409Z,2.70
2023-04-27T03:51:18.296Z,2.72
2023-04-27T03:53:46.388Z,3.12
2023-04-27T03:56:14.430Z,2.53
2023-04-27T03:58:41.999Z,2.47
2023-04-27T04:01:11.592Z,2.80
2023-04-27T04:03:39.475Z,2.45
2023-04-27T04:06:07.324Z,3.65
2023-04-27T04:08:34.834Z,2.95
2023-04-27T04:11:02.735Z,2.80
2023-04-27T04:13:30.336Z,2.78
2023-04-27T04:16:05.022Z,3.08
2023-04-27T04:18:33.826Z,3.12
2023-04-27T04:21:02.216Z,3.12
2023-04-27T04:23:29.669Z,3.30
2023-04-27T04:25:58.146Z,3.10
2023-04-27T04:28:25.848Z,3.30
2023-04-27T04:30:53.318Z,4.35
2023-04-27T04:33:21.474Z,5.12
2023-04-27T04:35:49.442Z,5.93
2023-04-27T04:38:16.879Z,5.80
2023-04-27T04:40:45.967Z,3.92
2023-04-27T04:43:13.691Z,3.22
2023-04-27T04:45:42.738Z,3.33
2023-04-27T04:48:14.638Z,3.65
2023-04-27T04:50:42.201Z,3.67
2023-04-27T04:53:09.999Z,2.92
2023-04-27T04:55:37.568Z,2.97
2023-04-27T04:58:05.291Z,2.78
2023-04-27T05:00:32.949Z,2.60
2023-04-27T05:03:01.665Z,3.00
2023-04-27T05:05:29.230Z,2.67
2023-04-27T05:07:57.041Z,2.58
2023-04-27T05:10:24.505Z,3.17
2023-04-27T05:12:51.894Z,2.45
2023-04-27T05:15:19.917Z,2.35
2023-04-27T05:17:47.322Z,3.33
2023-04-27T05:20:15.873Z,2.33
2023-04-27T05:22:43.790Z,2.55
2023-04-27T05:25:11.368Z,2.35
2023-04-27T05:27:38.726Z,2.33
2023-04-27T05:30:07.905Z,2.30
2023-04-27T05:32:37.408Z,2.00
2023-04-27T05:35:05.621Z,2.30
2023-04-27T05:37:33.325Z,2.40
2023-04-27T05:40:00.786Z,1.80
2023-04-27T05:42:28.205Z,2.05
2023-04-27T05:44:56.027Z,2.50
2023-04-27T05:47:23.721Z,2.25
2023-04-27T05:49:54.499Z,2.47
2023-04-27T05:52:22.318Z,2.05
2023-04-27T05:54:50.820Z,2.35
2023-04-27T05:57:18.491Z,2.25
2023-04-27T05:59:46.261Z,1.75
2023-04-27T06:02:13.746Z,2.17
2023-04-27T06:04:41.483Z,2.08
2023-04-27T06:07:10.391Z,2.00
2023-04-27T06:09:38.360Z,2.03
2023-04-27T06:12:07.244Z,2.20
2023-04-27T06:14:37.225Z,2.55
2023-04-27T06:17:04.909Z,2.20
2023-04-27T06:19:32.616Z,2.58
2023-04-27T06:21:59.991Z,2.75
2023-04-27T06:24:28.609Z,3.90
2023-04-27T06:26:56.953Z,2.17
2023-04-27T06:29:24.350Z,1.90
2023-04-27T06:31:51.872Z,2.22
2023-04-27T06:34:19.817Z,2.33
2023-04-27T06:36:47.252Z,1.70
2023-04-27T06:39:14.889Z,1.75
2023-04-27T06:41:42.782Z,2.20
2023-04-27T06:44:13.146Z,1.67
2023-04-27T06:46:40.554Z,1.80
2023-04-27T06:49:08.286Z,1.48
2023-04-27T06:51:35.770Z,2.00
2023-04-27T06:54:03.865Z,1.50
2023-04-27T06:56:31.730Z,1.48
2023-04-27T06:58:59.541Z,1.50
2023-04-27T07:01:26.990Z,2.00
2023-04-27T07:03:54.960Z,1.50
2023-04-27T07:06:22.745Z,1.40
2023-04-27T07:08:50.098Z,1.33
2023-04-27T07:11:17.902Z,1.35
2023-04-27T07:13:45.554Z,1.40
2023-04-27T07:16:13.277Z,1.48
2023-04-27T07:18:43.185Z,1.52
2023-04-27T07:21:11.399Z,1.98
2023-04-27T07:23:40.842Z,1.40
2023-04-27T07:26:09.737Z,2.20
2023-04-27T07:28:38.215Z,1.45
2023-04-27T07:31:06.363Z,1.40
2023-04-27T07:33:34.587Z,1.20
2023-04-27T07:36:02.699Z,1.35
2023-04-27T07:38:31.214Z,1.52
2023-04-27T07:41:01.776Z,1.55
2023-04-27T07:43:29.783Z,1.52
2023-04-27T07:45:58.419Z,1.52
2023-04-27T07:48:26.360Z,1.60
2023-04-27T07:50:53.887Z,1.35
2023-04-27T07:53:21.339Z,1.85
2023-04-27T07:55:49.006Z,1.50
2023-04-27T07:58:16.444Z,1.60
2023-04-27T08:00:43.946Z,1.42
2023-04-27T08:03:11.895Z,1.12
2023-04-27T08:05:39.839Z,1.20
2023-04-27T08:08:08.052Z,1.20
2023-04-27T08:10:37.113Z,1.30
2023-04-27T08:13:04.491Z,1.10
2023-04-27T08:15:32.009Z,1.77
2023-04-27T08:17:59.868Z,1.10
2023-04-27T08:20:30.747Z,1.40
2023-04-27T08:22:58.228Z,1.15
2023-04-27T08:25:26.357Z,0.88
2023-04-27T08:27:53.778Z,1.12
2023-04-27T08:30:21.292Z,1.23
2023-04-27T08:32:49.664Z,1.30
2023-04-27T08:35:17.706Z,1.20
2023-04-27T08:37:45.137Z,1.42
2023-04-27T08:40:13.388Z,1.10
2023-04-27T08:42:52.464Z,0.98
2023-04-27T08:45:24.418Z,0.90
2023-04-27T08:50:21.490Z,1.20
2023-04-27T08:52:50.734Z,1.25
2023-04-27T08:55:18.166Z,1.15
2023-04-27T08:57:58.673Z,1.70
2023-04-27T09:00:26.869Z,1.20
2023-04-27T09:02:54.873Z,0.90
2023-04-27T09:05:23.762Z,1.73
2023-04-27T09:08:05.449Z,1.48
2023-04-27T09:10:52.460Z,1.45
2023-04-27T09:13:19.913Z,1.50
2023-04-27T09:15:52.243Z,1.60
2023-04-27T09:18:23.526Z,1.40
2023-04-27T09:20:52.346Z,1.30
2023-04-27T09:23:26.428Z,1.30
2023-04-27T09:25:56.515Z,1.20
2023-04-27T09:28:26.086Z,1.62
2023-04-27T09:30:55.714Z,1.05
2023-04-27T09:33:27.727Z,1.67
2023-04-27T09:35:57.205Z,1.30
2023-04-27T09:38:24.771Z,1.42
2023-04-27T09:40:53.579Z,1.05
2023-04-27T09:43:22.001Z,1.25
2023-04-27T09:45:50.222Z,1.25
2023-04-27T09:48:18.550Z,1.52
2023-04-27T09:50:46.858Z,1.50
2023-04-27T09:53:18.748Z,1.65
2023-04-27T09:55:50.548Z,1.25
2023-04-27T09:58:45.237Z,1.50
2023-04-27T10:01:42.616Z,1.25
2023-04-27T10:05:04.865Z,1.65
2023-04-27T10:07:33.188Z,1.27
2023-04-27T10:10:02.695Z,1.30
2023-04-27T10:12:36.607Z,1.83
2023-04-27T10:15:15.374Z,1.20
2023-04-27T10:17:50.316Z,1.30
2023-04-27T10:20:29.071Z,1.40
2023-04-27T10:22:56.675Z,1.52
2023-04-27T10:25:40.762Z,1.62
2023-04-27T10:28:09.496Z,1.48
2023-04-27T10:30:39.279Z,1.37
2023-04-27T10:33:11.850Z,1.67
2023-04-27T10:35:41.099Z,1.75
2023-04-27T10:38:19.220Z,1.20
2023-04-27T10:40:55.981Z,1.70
2023-04-27T10:43:28.754Z,1.70
2023-04-27T10:46:11.749Z,2.00
2023-04-27T10:48:39.834Z,1.42
2023-04-27T10:51:07.699Z,1.48
2023-04-27T10:53:37.318Z,1.33
2023-04-27T10:56:06.992Z,1.37
2023-04-27T10:58:48.107Z,1.75
2023-04-27T11:01:26.951Z,1.42
2023-04-27T11:03:58.982Z,1.30
2023-04-27T11:06:28.127Z,1.90
2023-04-27T11:08:56.622Z,1.62
2023-04-27T11:11:24.319Z,1.50
2023-04-27T11:13:55.792Z,2.10
2023-04-27T11:16:24.050Z,1.40
2023-04-27T11:18:51.551Z,1.35
2023-04-27T11:21:20.565Z,1.92
2023-04-27T11:23:48.264Z,1.42
2023-04-27T11:26:20.089Z,1.40
2023-04-27T11:28:59.772Z,1.85
2023-04-27T11:31:28.271Z,1.87
2023-04-27T11:33:56.266Z,1.60
2023-04-27T11:36:24.396Z,1.35
2023-04-27T11:38:57.854Z,1.30
2023-04-27T11:41:36.234Z,1.55
2023-04-27T11:44:08.364Z,1.73
2023-04-27T11:46:36.866Z,1.55
2023-04-27T11:49:05.593Z,1.92
2023-04-27T11:51:33.535Z,1.65
2023-04-27T11:54:05.996Z,1.80
2023-04-27T11:56:41.480Z,1.60
2023-04-27T11:59:27.613Z,1.55
2023-04-27T12:01:55.043Z,1.67
2023-04-27T12:04:23.001Z,1.83
2023-04-27T12:06:51.110Z,1.70
2023-04-27T12:09:22.567Z,1.80
2023-04-27T12:11:50.324Z,1.48
2023-04-27T12:14:19.859Z,1.60
2023-04-27T12:16:47.340Z,1.55
2023-04-27T12:19:15.065Z,1.50
2023-04-27T12:21:42.785Z,1.75
2023-04-27T12:24:10.449Z,2.03
2023-04-27T12:26:38.563Z,1.40
2023-04-27T12:29:07.224Z,1.20
2023-04-27T12:31:34.782Z,1.33
2023-04-27T12:34:02.529Z,1.20
2023-04-27T12:36:29.972Z,1.20
2023-04-27T12:39:13.708Z,1.50
2023-04-27T12:41:43.512Z,1.37
2023-04-27T12:44:12.902Z,1.30
2023-04-27T12:46:41.627Z,1.50
2023-04-27T12:49:09.992Z,1.50
2023-04-27T12:51:37.627Z,1.60
2023-04-27T12:54:06.599Z,1.77
2023-04-27T12:56:34.140Z,1.42
2023-04-27T12:59:01.647Z,1.40
2023-04-27T13:01:30.274Z,1.30
2023-04-27T13:04:07.280Z,1.30
2023-04-27T13:06:35.141Z,1.33
2023-04-27T13:09:02.776Z,1.30
2023-04-27T13:11:30.251Z,1.23
2023-04-27T13:13:59.027Z,2.40
2023-04-27T13:16:26.542Z,1.80
2023-04-27T13:18:55.459Z,1.83
2023-04-27T13:21:23.316Z,1.40
2023-04-27T13:23:53.620Z,1.65
2023-04-27T13:26:21.170Z,1.65
2023-04-27T13:28:49.782Z,1.58
2023-04-27T13:31:17.311Z,1.48
2023-04-27T13:33:45.151Z,1.30
2023-04-27T13:36:13.424Z,1.50
2023-04-27T13:38:41.083Z,1.75
2023-04-27T13:41:08.765Z,1.55
2023-04-27T13:43:36.562Z,1.58
2023-04-27T13:46:03.983Z,1.50
2023-04-27T13:48:31.968Z,1.50
2023-04-27T13:50:59.660Z,2.08
2023-04-27T13:53:27.267Z,1.30
2023-04-27T13:55:56.016Z,1.30
2023-04-27T13:58:26.109Z,1.40
2023-04-27T14:00:54.152Z,1.15
2023-04-27T14:03:22.849Z,1.58
2023-04-27T14:05:53.573Z,1.35
2023-04-27T14:08:21.729Z,1.20
2023-04-27T14:10:49.647Z,1.30
2023-04-27T14:13:18.401Z,1.30
2023-04-27T14:15:46.747Z,1.33
2023-04-27T14:18:14.521Z,1.40
2023-04-27T14:20:42.337Z,2.03
2023-04-27T14:23:10.830Z,1.23
2023-04-27T14:25:39.188Z,1.45
2023-04-27T14:28:06.730Z,1.30
2023-04-27T14:30:35.434Z,1.60
2023-04-27T14:33:03.389Z,1.65
2023-04-27T14:35:34.105Z,1.80
2023-04-27T14:38:04.377Z,1.60
2023-04-27T14:40:32.459Z,1.45
2023-04-27T14:42:59.868Z,1.10
2023-04-27T14:45:33.565Z,1.40
2023-04-27T14:48:07.781Z,1.40
2023-04-27T14:50:36.006Z,1.35
2023-04-27T14:53:03.445Z,1.40
2023-04-27T14:55:31.528Z,1.40
2023-04-27T14:57:58.895Z,1.40
2023-04-27T15:00:26.368Z,1.50
2023-04-27T15:02:54.945Z,1.30
2023-04-27T15:05:22.693Z,1.30
2023-04-27T15:07:50.447Z,1.50
2023-04-27T15:10:18.276Z,1.23
2023-04-27T15:12:45.984Z,1.62
2023-04-27T15:15:13.543Z,1.65
2023-04-27T15:17:41.742Z,1.37
2023-04-27T15:20:10.741Z,1.77
2023-04-27T15:22:38.179Z,1.48
2023-04-27T15:25:06.293Z,1.62
2023-04-27T15:27:33.740Z,2.00
2023-04-27T15:30:03.772Z,1.50
2023-04-27T15:32:31.900Z,1.60
2023-04-27T15:34:59.503Z,1.83
2023-04-27T15:37:28.178Z,1.40
2023-04-27T15:39:56.222Z,2.22
2023-04-27T15:42:24.285Z,2.08
2023-04-27T15:44:51.898Z,2.10
2023-04-27T15:47:19.647Z,1.95
2023-04-27T15:49:56.982Z,1.65
2023-04-27T15:52:26.962Z,7.35
2023-04-27T15:54:54.997Z,9.25
2023-04-27T15:57:22.463Z,24.63
2023-04-27T15:59:50.181Z,2.97
2023-04-27T16:02:18.405Z,1.87
2023-04-27T16:04:46.154Z,2.05
2023-04-27T16:07:13.562Z,3.42
2023-04-27T16:09:41.116Z,4.57
2023-04-27T16:12:08.883Z,4.72
2023-04-27T16:14:36.300Z,3.35
2023-04-27T16:17:03.938Z,2.92
2023-04-27T16:19:31.733Z,2.35
2023-04-27T16:22:01.240Z,2.40
2023-04-27T16:24:29.584Z,1.80
2023-04-27T16:26:57.587Z,1.83
2023-04-27T16:29:25.045Z,1.90
2023-04-27T16:31:53.330Z,2.05
2023-04-27T16:34:21.114Z,1.62
2023-04-27T16:36:49.831Z,1.62
2023-04-27T16:39:19.231Z,1.50
2023-04-27T16:41:47.946Z,1.95
2023-04-27T16:44:15.798Z,1.87
2023-04-27T16:46:43.395Z,1.80
2023-04-27T16:49:11.204Z,1.70
2023-04-27T16:51:38.679Z,1.30
2023-04-27T16:54:06.078Z,1.40
2023-04-27T16:56:35.442Z,2.25
2023-04-27T16:59:04.937Z,2.05
2023-04-27T17:01:32.455Z,1.48
2023-04-27T17:04:02.295Z,1.52
2023-04-27T17:06:30.250Z,1.70
2023-04-27T17:08:58.048Z,2.22
2023-04-27T17:11:26.462Z,1.87
2023-04-27T17:13:54.338Z,1.80
2023-04-27T17:16:22.079Z,2.35
2023-04-27T17:18:50.005Z,2.47
2023-04-27T17:21:17.536Z,3.25
2023-04-27T17:23:50.528Z,2.70
2023-04-27T17:26:21.317Z,3.37
2023-04-27T17:28:49.274Z,2.30
2023-04-27T17:31:17.683Z,2.05
2023-04-27T17:33:45.857Z,3.65
2023-04-27T17:36:14.914Z,5.12
2023-04-27T17:38:42.440Z,6.12
2023-04-27T17:41:10.219Z,3.50
2023-04-27T17:43:38.058Z,5.25
2023-04-27T17:46:09.792Z,4.68
2023-04-27T17:48:37.928Z,3.85
2023-04-27T17:51:05.445Z,3.60
2023-04-27T17:53:33.152Z,4.32
2023-04-27T17:56:00.851Z,4.97
2023-04-27T17:58:28.256Z,5.75
2023-04-27T18:00:55.714Z,4.78
2023-04-27T18:03:23.715Z,4.05
2023-04-27T18:05:51.640Z,3.53
2023-04-27T18:08:19.058Z,3.90
2023-04-27T18:10:46.790Z,3.05
2023-04-27T18:13:14.165Z,2.60
2023-04-27T18:15:41.721Z,4.65
2023-04-27T18:18:10.938Z,3.55
2023-04-27T18:20:38.479Z,3.22
2023-04-27T18:23:06.033Z,2.97
2023-04-27T18:25:33.856Z,3.47
2023-04-27T18:28:01.564Z,3.80
2023-04-27T18:30:30.918Z,4.18
2023-04-27T18:32:58.679Z,3.95
2023-04-27T18:35:26.142Z,5.53
2023-04-27T18:37:53.544Z,7.30
2023-04-27T18:40:22.419Z,9.07
2023-04-27T18:42:53.553Z,10.60
2023-04-27T18:45:21.594Z,13.95
2023-04-27T18:47:49.077Z,17.58
2023-04-27T18:50:17.428Z,17.67
2023-04-27T18:52:45.614Z,19.17
2023-04-27T18:55:14.216Z,24.75
2023-04-27T18:57:41.886Z,25.77
2023-04-27T19:00:11.804Z,23.55
2023-04-27T19:02:39.638Z,18.33
2023-04-27T19:05:12.868Z,13.48
2023-04-27T19:07:41.261Z,14.50
2023-04-27T19:10:09.352Z,13.77
2023-04-27T19:12:36.796Z,14.68
2023-04-27T19:15:04.882Z,15.10
2023-04-27T19:17:32.536Z,14.82
2023-04-27T19:20:00.015Z,11.55
2023-04-27T19:22:29.277Z,10.55
2023-04-27T19:24:56.710Z,13.05
2023-04-27T19:27:24.383Z,14.45
2023-04-27T19:29:54.510Z,14.38
2023-04-27T19:32:25.137Z,15.43
2023-04-27T19:34:56.525Z,15.32
2023-04-27T19:37:25.050Z,11.50
2023-04-27T19:39:53.339Z,14.82
2023-04-27T19:42:20.880Z,16.45
2023-04-27T19:44:48.328Z,15.57
2023-04-27T19:47:16.179Z,13.48
2023-04-27T19:49:43.685Z,12.73
2023-04-27T19:52:11.327Z,13.82
2023-04-27T19:55:00.292Z,13.02
2023-04-27T19:57:28.881Z,12.80
2023-04-27T19:59:57.139Z,11.07
2023-04-27T20:02:24.999Z,9.40
2023-04-27T20:04:52.968Z,8.15
2023-04-27T20:07:21.039Z,8.60
2023-04-27T20:09:48.514Z,7.78
2023-04-27T20:12:35.253Z,8.38
2023-04-27T20:15:05.306Z,7.72
2023-04-27T20:17:33.307Z,6.62
2023-04-27T20:20:01.274Z,7.40
2023-04-27T20:22:28.701Z,8.60
2023-04-27T20:24:59.169Z,7.32
2023-04-27T20:27:26.735Z,7.60
2023-04-27T20:29:54.151Z,7.62
2023-04-27T20:32:21.930Z,6.57
2023-04-27T20:34:49.353Z,5.85
2023-04-27T20:37:19.571Z,6.30
2023-04-27T20:39:47.538Z,6.85
2023-04-27T20:42:14.986Z,6.20
2023-04-27T20:44:42.469Z,7.82
2023-04-27T20:47:10.162Z,6.85
2023-04-27T20:49:37.602Z,5.57
2023-04-27T20:52:05.082Z,4.68
2023-04-27T20:54:32.978Z,5.35
2023-04-27T20:57:08.425Z,5.75
2023-04-27T20:59:36.262Z,5.30
2023-04-27T21:02:03.756Z,4.87
2023-04-27T21:04:31.301Z,4.60
2023-04-27T21:06:59.177Z,4.10
2023-04-27T21:09:26.584Z,3.72
2023-04-27T21:11:54.221Z,4.03
2023-04-27T21:14:21.995Z,4.72
2023-04-27T21:16:49.588Z,4.43
2023-04-27T21:19:17.564Z,3.78
2023-04-27T21:21:45.325Z,4.57
2023-04-27T21:24:12.792Z,3.50
2023-04-27T21:26:40.255Z,3.60
2023-04-27T21:29:08.389Z,3.25
2023-04-27T21:31:36.228Z,4.40
2023-04-27T21:34:03.935Z,4.93
2023-04-27T21:36:32.412Z,4.65
2023-04-27T21:38:59.815Z,4.60
2023-04-27T21:41:27.569Z,3.40
2023-04-27T21:43:55.434Z,3.95
2023-04-27T21:46:24.038Z,3.10
2023-04-27T21:48:51.638Z,3.67
2023-04-27T21:51:19.468Z,3.00
2023-04-27T21:53:47.093Z,2.92
2023-04-27T21:56:14.568Z,2.70
2023-04-27T21:58:42.277Z,2.22
2023-04-27T22:01:11.189Z,2.95
2023-04-27T22:03:39.341Z,2.83
2023-04-27T22:06:07.541Z,2.70
2023-04-27T22:08:35.316Z,2.80
2023-04-27T22:11:03.038Z,2.53
2023-04-27T22:13:30.585Z,2.65
2023-04-27T22:15:58.095Z,2.90
2023-04-27T22:18:25.905Z,2.97
2023-04-27T22:20:54.901Z,3.10
2023-04-27T22:23:22.298Z,3.00
2023-04-27T22:25:49.964Z,2.20
2023-04-27T22:28:17.430Z,2.72
2023-04-27T22:30:44.864Z,3.17
2023-04-27T22:33:24.723Z,2.78
2023-04-27T22:35:52.098Z,3.00
2023-04-27T22:38:19.773Z,2.65
2023-04-27T22:40:47.286Z,2.50
2023-04-27T22:43:14.806Z,2.85
2023-04-27T22:45:42.522Z,3.78
2023-04-27T22:48:10.078Z,3.65
2023-04-27T22:50:37.800Z,3.85
2023-04-27T22:53:05.497Z,4.37
2023-04-27T22:55:32.877Z,6.07
2023-04-27T22:58:00.540Z,5.40
2023-04-27T23:00:28.287Z,5.47
2023-04-27T23:02:55.921Z,9.90
2023-04-27T23:05:23.687Z,14.43
2023-04-27T23:07:51.772Z,10.57
2023-04-27T23:10:19.371Z,7.50
2023-04-27T23:12:56.961Z,5.00
2023-04-27T23:15:24.658Z,4.28
2023-04-27T23:17:52.097Z,4.10
2023-04-27T23:20:27.916Z,3.28
2023-04-27T23:22:57.036Z,3.30
2023-04-27T23:25:24.588Z,3.12
2023-04-27T23:27:52.902Z,3.42
2023-04-27T23:30:22.030Z,3.33
2023-04-27T23:32:49.505Z,3.08
2023-04-27T23:35:16.952Z,3.45
2023-04-27T23:37:44.950Z,2.45
2023-04-27T23:40:12.815Z,3.12
2023-04-27T23:42:40.212Z,3.20
2023-04-27T23:45:08.443Z,2.53
2023-04-27T23:47:35.896Z,2.67
2023-04-27T23:50:03.910Z,2.42
2023-04-27T23:52:32.110Z,2.97
2023-04-27T23:54:59.654Z,2.45
2023-04-27T23:57:27.039Z,2.37
2023-04-27T23:59:54.696Z,2.20
